Details From LEAM - Almeria
To LEGR - Granada
Flight Number -
Tags decoded
Created
Modified
Stats Distance 74 nm / 137 km
Max Altitude 0 ft / 0 m
Waypoints 5
Social Downloads 1
Likes 0
Share VATSIM

Download

Looking for another format? Having issues loading an existing format? Contact us
Advertisement - Login to hide

Notes

Requested: LEAM GADOR ESILA UNTOS PEPAS LEGR Unmatched points: PEPAS

Route

LEAM GADOR ESILA UNTOS LEGR

ID Type Via Altitude Latitude Longitude Leg Dist Tot Dist Heading (true) Name
O LEAM APT - 0 ft / 0 m 36.84393˚ -2.37010˚ - 0 nm - Almeria
GADOR FIX - 0 ft / 0 m 36.97799˚ -2.60907˚ 14 nm 14 nm 305° / 305° -
ESILA FIX - 0 ft / 0 m 37.05139˚ -2.77417˚ 9 nm 23 nm 299° / 299° -
UNTOS FIX - 0 ft / 0 m 37.25055˚ -3.27778˚ 26 nm 49 nm 297° / 296° -
O LEGR APT - 0 ft / 0 m 37.18873˚ -3.77736˚ 24 nm 74 nm 261° / 261° Granada

Altitude Profile

Advertisement - Login to hide

LEAM

Details ICAO LEAM (LEI)
Name Almeria
Region Spain
Timezone Unknown (UTC+0.0)
Stats Elevation 70 ft / 21 m (AMSL)
Location 36.843935° -2.370097°
Runways 1
Magnetic Variation 0.286° W

METAR

LEAM 181600Z 20005KT 170V240 CAVOK 14/05 Q1028

Decode

TAF

TAF TAF LEAM 181400Z 1815/1915 21008KT CAVOK TX17/1914Z TN07/1907Z BECMG 1822/1824 34010KT

Decode

Departure Runways

ID Width Length Bearing (true) Bearing (mag) Surface Threshold Offset Overrun Length
08 148 ft / 45 m 10,484 ft / 3,196 m 72.94° 73.23° Asphalt 492 ft / 150 m 191 ft / 58 m
26 148 ft / 45 m 10,484 ft / 3,196 m 252.96° 253.25° Asphalt 0 ft / 0 m 150 ft / 46 m

LEGR

Details ICAO LEGR (GRX)
Name Granada
Region Spain
Timezone Europe/Madrid (UTC+1.0)
Stats Elevation 1,859 ft / 567 m (AMSL)
Location 37.188731° -3.777359°
Runways 1
Magnetic Variation 0.675° W

METAR

LEGR 181600Z 29005KT 260V330 CAVOK 11/02 Q1027

Decode

TAF

TAF LEGR 181400Z 1815/1915 27003KT CAVOK TX12/1815Z TNM01/1908Z

Decode

Destination Runways

ID Width Length Bearing (true) Bearing (mag) Surface Threshold Offset Overrun Length
09 147 ft / 45 m 9,511 ft / 2,899 m 89.46° 90.14° Asphalt 0 ft / 0 m 0 ft / 0 m
27 147 ft / 45 m 9,511 ft / 2,899 m 269.48° 270.16° Asphalt 0 ft / 0 m 0 ft / 0 m

Approach Navaids

Runway Type Ident Frequency Range Bearing (true) Bearing (mag) Slope Elevation
09 Localiser GRD 109.30 MHz 18 nm / 33 km 89.49° 90.16° - 1,859 ft / 567 m (AMSL)
09 Glidescope GRD 109.30 MHz 10 nm / 19 km 89.47° 90.15° 3.00° 1,859 ft / 567 m (AMSL)

Popular Alternatives